createdAt,value
2022-12-27T08:26:42.477Z,4.1
2022-12-27T08:27:47.581Z,4.2
2022-12-27T08:28:53.757Z,4.3
2022-12-27T08:29:59.928Z,4.3
2022-12-27T08:31:05.924Z,4.4
2022-12-27T08:32:12.097Z,4.5
2022-12-27T08:33:18.191Z,4.5
2022-12-27T08:34:24.251Z,4.5
2022-12-27T08:35:30.354Z,4.5
2022-12-27T08:36:36.450Z,4.5
2022-12-27T08:37:42.549Z,4.6
2022-12-27T08:38:48.661Z,4.7
2022-12-27T08:39:54.736Z,4.8
2022-12-27T08:41:00.892Z,4.8
2022-12-27T08:42:07.099Z,4.8
2022-12-27T08:43:13.116Z,4.8
2022-12-27T08:44:19.172Z,4.8
2022-12-27T08:45:25.215Z,4.7
2022-12-27T08:46:31.311Z,4.9
2022-12-27T08:47:37.461Z,5
2022-12-27T08:48:43.475Z,5
2022-12-27T08:49:49.659Z,5.1
2022-12-27T08:50:55.661Z,5.1
2022-12-27T08:52:01.787Z,5.1
2022-12-27T08:53:07.840Z,5.1
2022-12-27T08:54:13.922Z,5.1
2022-12-27T08:55:20.177Z,5.1
2022-12-27T08:56:26.461Z,5.2
2022-12-27T08:57:32.447Z,5.2
2022-12-27T08:58:38.592Z,5.1
2022-12-27T08:59:44.887Z,5.2
2022-12-27T09:00:50.921Z,5.3
2022-12-27T09:01:57.147Z,5.3
2022-12-27T09:03:03.246Z,5.3
2022-12-27T09:04:09.401Z,5.3
2022-12-27T09:05:15.561Z,5.4
2022-12-27T09:06:21.719Z,5.5
2022-12-27T09:07:27.873Z,5.6
2022-12-27T09:08:34.025Z,5.5
2022-12-27T09:09:40.382Z,5.5
2022-12-27T09:10:45.564Z,5.5
2022-12-27T09:11:51.632Z,5.5
2022-12-27T09:12:57.729Z,5.5
2022-12-27T09:14:03.819Z,5.5
2022-12-27T09:15:09.857Z,5.6
2022-12-27T09:16:15.943Z,5.6
2022-12-27T09:17:22.084Z,5.7
2022-12-27T09:18:28.100Z,5.8
2022-12-27T09:19:34.232Z,5.7
2022-12-27T09:20:40.290Z,5.8
2022-12-27T09:21:46.327Z,5.9
2022-12-27T09:22:52.410Z,6
2022-12-27T09:23:58.490Z,6
2022-12-27T09:25:04.639Z,6
2022-12-27T09:26:10.668Z,6.1
2022-12-27T09:27:16.784Z,6.3
2022-12-27T09:28:22.791Z,6.6
2022-12-27T09:29:28.861Z,6.5
2022-12-27T09:30:34.956Z,6.5
2022-12-27T09:31:41.098Z,6.6
2022-12-27T09:32:47.099Z,6.6
2022-12-27T09:33:53.206Z,6.6
2022-12-27T09:34:59.228Z,6.7
2022-12-27T09:36:05.318Z,6.8
2022-12-27T09:37:11.416Z,6.7
2022-12-27T09:38:17.535Z,6.4
2022-12-27T09:39:23.695Z,6.3
2022-12-27T09:40:29.816Z,6.2
2022-12-27T09:41:35.962Z,6.1
2022-12-27T09:42:42.119Z,6.2
2022-12-27T09:43:48.270Z,6.1
2022-12-27T09:44:54.701Z,6.3
2022-12-27T09:46:00.560Z,6.4
2022-12-27T09:47:06.825Z,6.6
2022-12-27T09:48:12.853Z,6.5
2022-12-27T09:49:19.025Z,6.3
2022-12-27T09:50:25.153Z,6.3
2022-12-27T09:51:31.310Z,6.3
2022-12-27T09:52:37.641Z,6.2
2022-12-27T09:53:42.811Z,6.1
2022-12-27T09:54:48.892Z,6
2022-12-27T09:55:55.032Z,6
2022-12-27T09:57:01.024Z,6
2022-12-27T09:58:07.097Z,6.1
2022-12-27T09:59:13.169Z,6.1
2022-12-27T10:00:19.329Z,6.4
2022-12-27T10:01:25.363Z,6.7
2022-12-27T10:02:31.396Z,6.8
2022-12-27T10:03:37.464Z,7
2022-12-27T10:04:43.586Z,7.3
2022-12-27T10:05:49.770Z,7.4
2022-12-27T10:06:55.855Z,7.4
2022-12-27T10:08:01.893Z,7.3
2022-12-27T10:09:07.931Z,7.5
2022-12-27T10:10:13.995Z,7.3
2022-12-27T10:11:20.051Z,7.4
2022-12-27T10:12:26.152Z,7.5
2022-12-27T10:13:32.128Z,7.5
2022-12-27T10:14:38.318Z,7.6
2022-12-27T10:15:44.289Z,7.3
2022-12-27T10:16:50.357Z,7.2
2022-12-27T10:17:56.419Z,7.3
2022-12-27T10:19:02.467Z,7.2
2022-12-27T10:20:08.565Z,7.2
2022-12-27T10:21:14.620Z,7.2
2022-12-27T10:22:20.843Z,7.3
2022-12-27T10:23:26.873Z,7.4
2022-12-27T10:24:33.038Z,7.7
2022-12-27T10:25:39.141Z,7.6
2022-12-27T10:26:45.410Z,7.2
2022-12-27T10:27:51.416Z,7
2022-12-27T10:28:57.655Z,6.9
2022-12-27T10:30:03.783Z,6.9
2022-12-27T10:31:09.899Z,6.9
2022-12-27T10:32:16.028Z,6.9
2022-12-27T10:33:22.186Z,6.9
2022-12-27T10:34:28.320Z,6.9
2022-12-27T10:35:34.550Z,6.9
2022-12-27T10:36:39.816Z,6.8
2022-12-27T10:37:45.886Z,6.8
2022-12-27T10:38:52.060Z,6.8
2022-12-27T10:39:57.976Z,6.7
2022-12-27T10:41:04.040Z,6.8
2022-12-27T10:42:10.066Z,6.8
2022-12-27T10:43:16.154Z,6.7
2022-12-27T10:44:22.189Z,6.9
2022-12-27T10:45:28.267Z,6.8
2022-12-27T10:46:34.405Z,6.7
2022-12-27T10:47:40.409Z,6.8
2022-12-27T10:48:46.460Z,6.7
2022-12-27T10:49:52.575Z,6.9
2022-12-27T10:50:58.616Z,6.9
2022-12-27T10:52:04.649Z,6.9
2022-12-27T10:53:10.761Z,6.9
2022-12-27T10:54:16.784Z,6.9
2022-12-27T10:55:22.852Z,6.9
2022-12-27T10:56:28.969Z,6.9
2022-12-27T10:57:35.123Z,6.9
2022-12-27T10:58:41.090Z,7
2022-12-27T10:59:47.132Z,7.1
2022-12-27T11:00:53.142Z,7
2022-12-27T11:01:59.212Z,7.1
2022-12-27T11:03:05.284Z,7
2022-12-27T11:04:11.443Z,7.1
2022-12-27T11:05:17.554Z,7.1
2022-12-27T11:06:23.699Z,7.5
2022-12-27T11:07:29.898Z,7.8
2022-12-27T11:08:36.079Z,7.7
2022-12-27T11:09:42.202Z,7.4
2022-12-27T11:10:48.322Z,7.3
2022-12-27T11:11:54.418Z,7.6
2022-12-27T11:13:00.541Z,7.9
2022-12-27T11:14:06.768Z,7.8
2022-12-27T11:15:12.801Z,7.5
2022-12-27T11:16:18.970Z,7.3
2022-12-27T11:17:25.085Z,7.4
2022-12-27T11:18:31.383Z,7.3
2022-12-27T11:19:36.577Z,7.2
2022-12-27T11:20:42.672Z,7.2
2022-12-27T11:21:48.723Z,7.2
2022-12-27T11:22:54.718Z,7.2
2022-12-27T11:24:00.796Z,7.2
2022-12-27T11:25:06.861Z,7.2
2022-12-27T11:26:12.911Z,7.3
2022-12-27T11:27:19.009Z,7.2
2022-12-27T11:28:25.106Z,7.3
2022-12-27T11:29:31.155Z,7.3
2022-12-27T11:30:37.113Z,7.2
2022-12-27T11:31:43.313Z,7.2
2022-12-27T11:32:49.253Z,7.3
2022-12-27T11:33:55.350Z,7.4
2022-12-27T11:35:01.356Z,7.3
2022-12-27T11:36:07.548Z,7.3
2022-12-27T11:37:13.524Z,7.2
2022-12-27T11:38:19.531Z,7.1
2022-12-27T11:39:25.700Z,7
2022-12-27T11:40:31.706Z,7
2022-12-27T11:41:37.851Z,7
2022-12-27T11:42:43.807Z,7
2022-12-27T11:43:49.915Z,6.9
2022-12-27T11:44:55.894Z,7
2022-12-27T11:46:01.964Z,7
2022-12-27T11:47:08.158Z,7
2022-12-27T11:48:14.278Z,7.1
2022-12-27T11:49:20.477Z,7
2022-12-27T11:50:26.559Z,7
2022-12-27T11:51:32.748Z,6.9
2022-12-27T11:52:38.873Z,7
2022-12-27T11:53:44.976Z,6.9
2022-12-27T11:54:51.135Z,6.9
2022-12-27T11:55:57.294Z,6.9
2022-12-27T11:57:03.464Z,7
2022-12-27T11:58:09.493Z,7
2022-12-27T11:59:15.679Z,7
2022-12-27T12:00:21.748Z,7
2022-12-27T12:01:28.034Z,7.1
2022-12-27T12:02:33.287Z,7.1
2022-12-27T12:03:39.529Z,7.1
2022-12-27T12:04:45.597Z,7.1
2022-12-27T12:05:51.767Z,7.1
2022-12-27T12:06:57.908Z,7.4
2022-12-27T12:08:04.092Z,7.5
2022-12-27T12:09:10.121Z,7.4
2022-12-27T12:10:16.239Z,7.3
2022-12-27T12:11:22.477Z,7.3
2022-12-27T12:12:28.531Z,7.2
2022-12-27T12:13:34.645Z,7.2
2022-12-27T12:14:40.791Z,7.3
2022-12-27T12:15:47.028Z,7.3
2022-12-27T12:16:53.068Z,7.3
2022-12-27T12:17:59.172Z,7.2
2022-12-27T12:19:05.321Z,7.2
2022-12-27T12:20:11.537Z,7.2
2022-12-27T12:21:17.738Z,7.2
2022-12-27T12:22:23.746Z,7.2
2022-12-27T12:23:29.964Z,7.1
2022-12-27T12:24:36.205Z,7.1
2022-12-27T12:25:42.138Z,7.1
2022-12-27T12:26:48.626Z,7.1
2022-12-27T12:27:54.421Z,7.1
2022-12-27T12:29:00.695Z,7
2022-12-27T12:30:06.815Z,7
2022-12-27T12:31:12.040Z,7
2022-12-27T12:32:18.148Z,7
2022-12-27T12:33:24.260Z,7
2022-12-27T12:34:30.229Z,7
2022-12-27T12:35:36.309Z,7
2022-12-27T12:36:42.374Z,7.1
2022-12-27T12:37:48.447Z,7
2022-12-27T12:38:54.508Z,7
2022-12-27T12:40:00.616Z,7.1
2022-12-27T12:41:06.700Z,7.1
2022-12-27T12:42:12.741Z,7.1
2022-12-27T12:43:18.913Z,7.2
2022-12-27T12:44:24.847Z,7.1
2022-12-27T12:45:30.926Z,7.1
2022-12-27T12:46:37.066Z,7.2
2022-12-27T12:47:43.009Z,7.2
2022-12-27T12:48:49.068Z,7.3
2022-12-27T12:49:55.136Z,7.3
2022-12-27T12:51:01.198Z,7.5
2022-12-27T12:52:07.277Z,7.6
2022-12-27T12:53:13.323Z,7.7
2022-12-27T12:54:19.507Z,7.6
2022-12-27T12:55:25.463Z,7.5
2022-12-27T12:56:31.629Z,7.5
2022-12-27T12:57:37.587Z,7.4
2022-12-27T12:58:43.709Z,7.4
2022-12-27T12:59:49.847Z,7.5
2022-12-27T13:00:56.026Z,7.5
2022-12-27T13:02:02.176Z,7.6
2022-12-27T13:03:08.283Z,7.6
2022-12-27T13:04:14.400Z,7.7
2022-12-27T13:05:20.532Z,7.7
2022-12-27T13:06:26.684Z,7.6
2022-12-27T13:07:32.825Z,7.6
2022-12-27T13:08:38.978Z,7.6
2022-12-27T13:09:45.049Z,7.6
2022-12-27T13:10:51.174Z,7.5
2022-12-27T13:11:57.388Z,7.5
2022-12-27T13:13:03.620Z,7.4
2022-12-27T13:14:08.785Z,7.5
2022-12-27T13:15:14.859Z,7.4
2022-12-27T13:16:20.899Z,7.4
2022-12-27T13:17:26.950Z,7.5
2022-12-27T13:18:32.996Z,7.4
2022-12-27T13:19:39.098Z,7.4
2022-12-27T13:20:45.113Z,7.3
2022-12-27T13:21:51.159Z,7.4
2022-12-27T13:22:57.224Z,7.3
2022-12-27T13:24:03.302Z,7.2
2022-12-27T13:25:09.335Z,7.2
2022-12-27T13:26:15.364Z,7.1
2022-12-27T13:27:21.422Z,7.1
2022-12-27T13:28:27.468Z,7.1
2022-12-27T13:29:33.532Z,7.1
2022-12-27T13:30:39.596Z,7.1
2022-12-27T13:31:45.649Z,7
2022-12-27T13:32:51.713Z,7.1
2022-12-27T13:33:57.763Z,7
2022-12-27T13:35:03.888Z,7
2022-12-27T13:36:09.905Z,7
2022-12-27T13:37:15.929Z,7
2022-12-27T13:38:21.995Z,7
2022-12-27T13:39:28.042Z,6.9
2022-12-27T13:40:34.111Z,6.9
2022-12-27T13:41:40.284Z,6.9
2022-12-27T13:42:46.382Z,6.9
2022-12-27T13:43:52.524Z,6.9
2022-12-27T13:44:58.689Z,6.9
2022-12-27T13:46:04.801Z,6.9
2022-12-27T13:47:10.951Z,6.9
2022-12-27T13:48:17.080Z,6.8
2022-12-27T13:49:23.219Z,6.8
2022-12-27T13:50:29.359Z,6.8
2022-12-27T13:51:35.511Z,6.8
2022-12-27T13:52:41.640Z,6.8
2022-12-27T13:53:47.783Z,6.8
2022-12-27T13:54:53.927Z,6.8
2022-12-27T13:56:00.218Z,6.8
2022-12-27T13:57:05.425Z,6.8
2022-12-27T13:58:11.564Z,6.8
2022-12-27T13:59:17.549Z,6.8
2022-12-27T14:00:23.612Z,6.8
2022-12-27T14:01:29.692Z,6.8
2022-12-27T14:02:35.728Z,6.8
2022-12-27T14:03:41.803Z,6.8
2022-12-27T14:04:47.864Z,6.8
2022-12-27T14:05:53.975Z,6.8
2022-12-27T14:07:00.006Z,6.7
2022-12-27T14:08:06.061Z,6.7
2022-12-27T14:09:12.135Z,6.7
2022-12-27T14:10:18.179Z,6.7
2022-12-27T14:11:24.243Z,6.7
2022-12-27T14:12:30.312Z,6.7
2022-12-27T14:13:36.368Z,6.7
2022-12-27T14:14:42.442Z,6.7
2022-12-27T14:15:48.511Z,6.6
2022-12-27T14:16:54.570Z,6.6
2022-12-27T14:18:00.637Z,6.6
2022-12-27T14:19:06.709Z,6.6
2022-12-27T14:20:12.772Z,6.6
2022-12-27T14:21:18.864Z,6.6
2022-12-27T14:22:25.005Z,6.6
2022-12-27T14:23:30.973Z,6.6
2022-12-27T14:24:37.131Z,6.6
2022-12-27T14:25:43.288Z,6.4
2022-12-27T14:26:49.427Z,6.2
2022-12-27T14:27:55.572Z,6
2022-12-27T14:29:01.700Z,6
2022-12-27T14:30:07.954Z,5.9
2022-12-27T14:31:14.005Z,5.8
2022-12-27T14:32:20.165Z,5.7
2022-12-27T14:33:26.294Z,5.5
2022-12-27T14:34:32.453Z,5.4
2022-12-27T14:35:38.584Z,5.3
2022-12-27T14:36:44.787Z,5.2
2022-12-27T14:37:50.913Z,5.1
2022-12-27T14:38:57.172Z,5.1
2022-12-27T14:40:02.399Z,5
2022-12-27T14:41:08.474Z,5
2022-12-27T14:42:14.544Z,5
2022-12-27T14:43:20.615Z,5
2022-12-27T14:44:26.728Z,5
2022-12-27T14:45:32.836Z,5
2022-12-27T14:46:38.883Z,4.9
2022-12-27T14:47:44.938Z,5
2022-12-27T14:48:51.023Z,5
2022-12-27T14:49:57.096Z,5
2022-12-27T14:51:03.196Z,5
2022-12-27T14:52:09.305Z,5.1
2022-12-27T14:53:15.341Z,5
2022-12-27T14:54:21.433Z,5
2022-12-27T14:55:27.524Z,5
2022-12-27T14:56:33.616Z,4.9
2022-12-27T14:57:39.693Z,4.8
2022-12-27T14:58:45.789Z,4.9
2022-12-27T14:59:51.877Z,4.9
2022-12-27T15:00:57.966Z,4.9
2022-12-27T15:02:04.078Z,4.8
2022-12-27T15:03:10.151Z,4.8
2022-12-27T15:04:16.260Z,4.8
2022-12-27T15:05:22.323Z,4.9
2022-12-27T15:06:28.405Z,4.8
2022-12-27T15:07:34.578Z,4.8
2022-12-27T15:08:40.741Z,4.7
2022-12-27T15:09:46.912Z,4.7
2022-12-27T15:10:53.077Z,4.6
2022-12-27T15:11:59.246Z,4.6
2022-12-27T15:13:05.413Z,4.5
2022-12-27T15:14:11.595Z,4.4
2022-12-27T15:15:17.746Z,4.3
2022-12-27T15:16:23.919Z,4.3
2022-12-27T15:17:30.075Z,4.3
2022-12-27T15:18:36.320Z,4.3
2022-12-27T15:19:42.422Z,4.2
2022-12-27T15:20:48.622Z,4.2
2022-12-27T15:21:53.776Z,4.2
2022-12-27T15:22:59.868Z,4.1
2022-12-27T15:24:05.956Z,4
2022-12-27T15:25:12.073Z,3.9
2022-12-27T15:26:18.148Z,3.8
2022-12-27T15:27:24.252Z,3.8
2022-12-27T15:28:30.369Z,3.7
2022-12-27T15:29:36.446Z,3.7
2022-12-27T15:30:42.550Z,3.7
2022-12-27T15:31:48.650Z,3.7
2022-12-27T15:32:54.760Z,3.7
2022-12-27T15:34:00.852Z,3.8
2022-12-27T15:35:06.991Z,3.9
2022-12-27T15:36:13.061Z,3.9
2022-12-27T15:37:19.158Z,3.9
2022-12-27T15:38:25.274Z,3.9
2022-12-27T15:39:31.373Z,3.9
2022-12-27T15:40:37.476Z,3.8
2022-12-27T15:41:43.575Z,3.8
2022-12-27T15:42:49.677Z,3.7
2022-12-27T15:43:55.793Z,3.7
2022-12-27T15:45:01.891Z,3.7
2022-12-27T15:46:07.992Z,3.7
2022-12-27T15:47:14.127Z,3.6
2022-12-27T15:48:20.203Z,3.6
2022-12-27T15:49:26.427Z,3.6
2022-12-27T15:50:31.586Z,3.6
2022-12-27T15:51:37.689Z,3.5
2022-12-27T15:52:43.794Z,3.5
2022-12-27T15:53:49.909Z,3.5
2022-12-27T15:54:56.008Z,3.5
2022-12-27T15:56:02.129Z,3.4
2022-12-27T15:57:08.228Z,3.4
2022-12-27T15:58:14.323Z,3.4
2022-12-27T15:59:20.444Z,3.4
2022-12-27T16:00:26.812Z,3.4
2022-12-27T16:01:32.654Z,3.4
2022-12-27T16:02:38.789Z,3.4
2022-12-27T16:03:44.857Z,3.4
2022-12-27T16:04:50.975Z,3.4
2022-12-27T16:05:57.105Z,3.4
2022-12-27T16:07:03.197Z,3.4
2022-12-27T16:08:09.327Z,3.3
2022-12-27T16:09:15.422Z,3.3
2022-12-27T16:10:21.527Z,3.3
2022-12-27T16:11:27.643Z,3.3
2022-12-27T16:12:33.773Z,3.2
2022-12-27T16:13:39.862Z,3.2
2022-12-27T16:14:45.976Z,3.2
2022-12-27T16:15:52.099Z,3.1
2022-12-27T16:16:58.241Z,3.1
2022-12-27T16:18:04.387Z,3.1
2022-12-27T16:19:09.656Z,3.1
2022-12-27T16:20:15.688Z,3
2022-12-27T16:21:21.796Z,3
2022-12-27T16:22:27.908Z,3
2022-12-27T16:23:34.015Z,3
2022-12-27T16:24:40.138Z,2.9
2022-12-27T16:25:46.235Z,2.9
2022-12-27T16:26:52.353Z,3
2022-12-27T16:27:58.461Z,3
2022-12-27T16:29:04.567Z,3
2022-12-27T16:30:10.676Z,2.9
2022-12-27T16:31:16.806Z,2.9
2022-12-27T16:32:22.888Z,2.9
2022-12-27T16:33:29.061Z,2.9
2022-12-27T16:34:35.152Z,2.8
2022-12-27T16:35:41.198Z,2.8
2022-12-27T16:36:47.314Z,2.8
2022-12-27T16:37:53.495Z,2.7
2022-12-27T16:38:59.541Z,2.7
2022-12-27T16:40:05.643Z,2.8
2022-12-27T16:41:11.756Z,2.9
2022-12-27T16:42:17.874Z,3
2022-12-27T16:43:23.986Z,3
2022-12-27T16:44:30.137Z,3.1
2022-12-27T16:45:36.223Z,3.1
2022-12-27T16:46:42.393Z,3.1
2022-12-27T16:47:47.605Z,3
2022-12-27T16:48:53.703Z,3
2022-12-27T16:49:59.822Z,3.1
2022-12-27T16:51:06.008Z,3.1
2022-12-27T16:52:12.094Z,3.1
2022-12-27T16:53:18.163Z,3.2
2022-12-27T16:54:24.262Z,3.3
2022-12-27T16:55:30.363Z,3.3
2022-12-27T16:56:36.537Z,3.3
2022-12-27T16:57:42.599Z,3.4
2022-12-27T16:58:48.714Z,3.3
2022-12-27T16:59:54.814Z,3.4
2022-12-27T17:01:00.919Z,3.4
2022-12-27T17:02:07.023Z,3.5
2022-12-27T17:03:13.144Z,3.5
2022-12-27T17:04:19.257Z,3.6
2022-12-27T17:05:25.379Z,3.6
2022-12-27T17:06:31.532Z,3.8
2022-12-27T17:07:37.723Z,3.8
2022-12-27T17:08:43.724Z,3.8
2022-12-27T17:09:49.876Z,3.8
2022-12-27T17:10:56.026Z,3.8
2022-12-27T17:12:02.085Z,3.8
2022-12-27T17:13:08.177Z,3.7
2022-12-27T17:14:14.331Z,3.7
2022-12-27T17:15:20.495Z,3.7
2022-12-27T17:16:25.665Z,3.7
2022-12-27T17:17:31.898Z,3.7
2022-12-27T17:18:37.943Z,3.7
2022-12-27T17:19:43.980Z,3.7
2022-12-27T17:20:50.099Z,3.7
2022-12-27T17:21:56.205Z,3.7
2022-12-27T17:23:02.412Z,3.7
2022-12-27T17:24:08.454Z,3.7
2022-12-27T17:25:14.528Z,3.7
2022-12-27T17:26:20.621Z,3.7
2022-12-27T17:27:26.823Z,3.8
2022-12-27T17:28:32.851Z,3.8
2022-12-27T17:29:38.979Z,3.8
2022-12-27T17:30:45.085Z,3.9
2022-12-27T17:31:51.160Z,3.9
2022-12-27T17:32:57.269Z,3.9
2022-12-27T17:34:03.415Z,3.9
2022-12-27T17:35:09.538Z,4
2022-12-27T17:36:15.597Z,4
2022-12-27T17:37:21.753Z,4.1
2022-12-27T17:38:27.792Z,4.1
2022-12-27T17:39:33.912Z,4.2
2022-12-27T17:40:40.010Z,4.2
2022-12-27T17:41:46.146Z,4.2
2022-12-27T17:42:52.198Z,4.1
2022-12-27T17:43:58.382Z,4.1
2022-12-27T17:45:03.553Z,4.1
2022-12-27T17:46:09.702Z,4.1
2022-12-27T17:47:15.769Z,4.1
2022-12-27T17:48:21.858Z,4
2022-12-27T17:49:27.994Z,4
2022-12-27T17:50:34.082Z,3.9
2022-12-27T17:51:40.174Z,3.9
2022-12-27T17:52:46.351Z,3.9
2022-12-27T17:53:52.386Z,3.9
2022-12-27T17:54:58.532Z,3.9
2022-12-27T17:56:04.587Z,3.9
2022-12-27T17:57:10.697Z,4
2022-12-27T17:58:16.858Z,4
2022-12-27T17:59:22.912Z,4.1
2022-12-27T18:00:29.016Z,4.2
2022-12-27T18:01:35.120Z,4.3
2022-12-27T18:02:41.286Z,4.3
2022-12-27T18:03:47.327Z,4.3
2022-12-27T18:04:53.413Z,4.3
2022-12-27T18:05:59.513Z,4.4
2022-12-27T18:07:05.701Z,4.4
2022-12-27T18:08:11.720Z,4.4
2022-12-27T18:09:17.803Z,4.5
2022-12-27T18:10:23.906Z,4.5
2022-12-27T18:11:30.057Z,4.5
2022-12-27T18:12:36.219Z,4.5
2022-12-27T18:13:41.364Z,4.5
2022-12-27T18:14:47.467Z,4.5
2022-12-27T18:15:53.588Z,4.5
2022-12-27T18:16:59.676Z,4.5
2022-12-27T18:18:05.759Z,4.6
2022-12-27T18:19:11.848Z,4.6
2022-12-27T18:20:17.958Z,4.6
2022-12-27T18:21:24.045Z,4.6
2022-12-27T18:22:30.184Z,4.7
2022-12-27T18:23:36.258Z,4.7
2022-12-27T18:24:42.321Z,4.7
2022-12-27T18:25:48.425Z,4.7
2022-12-27T18:26:54.518Z,4.7
2022-12-27T18:28:00.615Z,4.8
2022-12-27T18:29:06.722Z,4.8
2022-12-27T18:30:12.807Z,4.8
2022-12-27T18:31:18.881Z,4.8
2022-12-27T18:32:24.972Z,4.9
2022-12-27T18:33:31.087Z,4.9
2022-12-27T18:34:37.220Z,4.8
2022-12-27T18:35:43.270Z,4.8
2022-12-27T18:36:49.387Z,4.8
2022-12-27T18:37:55.442Z,4.8
2022-12-27T18:39:01.513Z,4.9
2022-12-27T18:40:07.607Z,4.9
2022-12-27T18:41:13.875Z,5
2022-12-27T18:42:19.972Z,5
2022-12-27T18:43:26.097Z,5
2022-12-27T18:44:32.355Z,5
2022-12-27T18:45:38.421Z,5
2022-12-27T18:46:44.667Z,5
2022-12-27T18:47:50.775Z,5
2022-12-27T18:48:56.927Z,5
2022-12-27T18:50:03.084Z,5.1
2022-12-27T18:51:09.279Z,5.1
2022-12-27T18:52:15.431Z,5.1
2022-12-27T18:53:21.567Z,5.1
2022-12-27T18:54:27.745Z,5.1
2022-12-27T18:55:34.028Z,5.2
2022-12-27T18:56:39.279Z,5.2
2022-12-27T18:57:45.378Z,5.1
2022-12-27T18:58:51.441Z,5.2
2022-12-27T18:59:57.543Z,5.2
2022-12-27T19:01:03.618Z,5.2
2022-12-27T19:02:09.716Z,5.1
2022-12-27T19:03:15.808Z,5.1
2022-12-27T19:04:22.016Z,5.1
2022-12-27T19:05:27.992Z,5
2022-12-27T19:06:34.068Z,5
2022-12-27T19:07:40.244Z,5
2022-12-27T19:08:46.267Z,4.9
2022-12-27T19:09:52.369Z,4.9
2022-12-27T19:10:58.440Z,4.9
2022-12-27T19:12:04.527Z,4.9
2022-12-27T19:13:10.627Z,4.9
